Chaseley, North Dakota
Current Conditions -  °F | °C
As of 6:35 AM on Wednesday 26 Nov 2014 (Local Time) from K5H4 Reporting Station
Light Snow Light Snow  
Wind Chill: -14°   Ceiling: 2300
Heat Index:   Visibility: 5mi
Dew Point:   Wind: 9mph
Humidity: 92%   Direction: 40°NE
Pressure: 30.3"   Gusts: NA
Location:  47.45°N, 99.82°W
Report Text: K5H4 261235Z AUTO 04008KT 5SM -SN FEW001 SCT011 BKN023 M17/M18 A3030 RMK AO2 P0003
Loading
Personal Weather Stations






























Interactive Weather Map New forecast layout! Learn more

10-Day Weather Forecast

Advertisements
Track Severe Weather on mobile